Time;durP1;ratioP1;P1;durP2;ratioP2;P2;SDS_P1;SDS_P2;PMS_P1;PMS_P2;Temp;Humidity;BMP_temperature;BMP_pressure;BME280_temperature;BME280_humidity;BME280_pressure;Samples;Min_cycle;Max_cycle;Signal;HPM_P1;HPM_P2
2021/04/27 00:00:46;;;;;;;0.30;0.20;;;;;;;7.76;51.18;99773.75;5013140;28;20473;-49
2021/04/27 00:03:12;;;;;;;0.30;0.20;;;;;;;7.72;51.17;99774.72;5013121;28;20995;-49
2021/04/27 00:05:39;;;;;;;0.30;0.20;;;;;;;7.66;52.15;99766.94;5013260;28;20491;-49
2021/04/27 00:08:05;;;;;;;0.30;0.20;;;;;;;7.62;52.36;99771.44;5012977;28;21041;-50
2021/04/27 00:10:32;;;;;;;0.30;0.20;;;;;;;7.62;52.49;99781.16;5012991;28;20847;-49
2021/04/27 00:13:01;;;;;;;0.30;0.20;;;;;;;7.50;52.02;99771.75;5006417;28;20835;-49
2021/04/27 00:15:29;;;;;;;0.30;0.20;;;;;;;7.57;52.33;99767.19;5006126;28;20941;-49
2021/04/27 00:17:56;;;;;;;0.30;0.20;;;;;;;7.51;52.71;99759.38;5013214;28;20452;-49
2021/04/27 00:20:24;;;;;;;0.30;0.20;;;;;;;7.65;51.54;99757.25;5012655;28;20472;-49
2021/04/27 00:22:52;;;;;;;0.30;0.20;;;;;;;7.51;52.36;99760.25;5013002;28;20487;-49
2021/04/27 00:25:18;;;;;;;0.30;0.20;;;;;;;7.42;53.15;99765.78;5012824;28;20570;-49
2021/04/27 00:27:48;;;;;;;0.30;0.20;;;;;;;7.50;51.98;99769.09;5012808;28;20448;-49
2021/04/27 00:30:15;;;;;;;0.30;0.20;;;;;;;7.40;52.38;99763.19;5012724;28;20476;-49
2021/04/27 00:32:42;;;;;;;0.30;0.20;;;;;;;7.52;52.40;99761.13;5012555;28;20494;-49
2021/04/27 00:35:09;;;;;;;0.30;0.20;;;;;;;7.65;52.57;99762.56;5012631;28;20449;-51
2021/04/27 00:37:35;;;;;;;0.30;0.20;;;;;;;7.64;51.80;99766.09;5012467;28;20453;-50
2021/04/27 00:40:04;;;;;;;0.30;0.20;;;;;;;7.81;51.54;99768.31;4999051;28;20485;-50
2021/04/27 00:42:36;;;;;;;0.30;0.20;;;;;;;7.76;51.59;99763.16;4986263;28;20526;-50
2021/04/27 00:45:06;;;;;;;0.30;0.20;;;;;;;7.75;52.54;99772.00;5008891;28;20463;-50
2021/04/27 00:47:32;;;;;;;0.73;0.47;;;;;;;7.86;51.66;99766.44;5012525;28;21008;-50
2021/04/27 00:49:58;;;;;;;0.30;0.20;;;;;;;7.98;51.76;99764.34;5012401;28;20843;-50
2021/04/27 00:52:25;;;;;;;0.30;0.20;;;;;;;7.89;52.29;99756.63;5012544;28;20456;-50
2021/04/27 00:54:54;;;;;;;0.30;0.20;;;;;;;7.70;52.54;99761.56;5012558;28;20460;-51
2021/04/27 00:57:21;;;;;;;0.30;0.20;;;;;;;7.74;52.44;99762.34;5012318;28;20455;-50
2021/04/27 00:59:47;;;;;;;0.40;0.33;;;;;;;7.57;53.48;99754.84;5012205;28;20595;-50
2021/04/27 01:02:13;;;;;;;0.30;0.20;;;;;;;7.45;53.37;99754.25;5012497;28;20468;-50
2021/04/27 01:04:39;;;;;;;0.30;0.20;;;;;;;7.36;53.38;99755.34;5012361;28;20448;-50
2021/04/27 01:07:06;;;;;;;0.30;0.20;;;;;;;7.48;53.45;99754.19;5012397;28;20496;-51
2021/04/27 01:09:39;;;;;;;0.30;0.20;;;;;;;7.48;53.21;99759.47;5012016;28;20476;-51
2021/04/27 01:12:29;;;;;;;0.30;0.20;;;;;;;7.32;53.75;99756.34;5012484;28;20536;-51
2021/04/27 01:15:09;;;;;;;0.30;0.20;;;;;;;7.48;52.23;99743.59;4992754;28;20481;-51
2021/04/27 01:17:38;;;;;;;0.30;0.20;;;;;;;7.35;52.99;99743.03;5009011;28;20868;-51
2021/04/27 01:20:04;;;;;;;0.30;0.20;;;;;;;7.28;52.28;99747.63;5012298;28;20472;-50
2021/04/27 01:22:59;;;;;;;0.40;0.30;;;;;;;7.23;53.20;99746.84;5011890;28;20459;-51
2021/04/27 01:25:33;;;;;;;0.30;0.20;;;;;;;7.18;52.82;99739.94;5013213;28;20611;-51
2021/04/27 01:28:01;;;;;;;0.30;0.20;;;;;;;6.91;53.59;99738.78;5015857;28;20455;-51
2021/04/27 01:30:27;;;;;;;0.30;0.20;;;;;;;7.22;53.49;99742.47;5015539;28;20484;-50
2021/04/27 01:32:54;;;;;;;0.30;0.20;;;;;;;7.21;53.14;99738.06;5015782;28;20444;-51
2021/04/27 01:35:20;;;;;;;0.30;0.20;;;;;;;7.09;54.02;99727.78;5015376;28;20984;-51
2021/04/27 01:37:47;;;;;;;0.30;0.20;;;;;;;7.13;53.96;99726.84;5015575;28;20988;-51
2021/04/27 01:40:14;;;;;;;0.30;0.20;;;;;;;7.09;54.06;99726.03;5002403;28;20522;-51
2021/04/27 01:42:40;;;;;;;0.30;0.20;;;;;;;7.14;53.37;99728.56;5005387;28;20449;-51
2021/04/27 01:45:07;;;;;;;0.30;0.20;;;;;;;7.06;53.25;99730.50;5012499;28;20874;-51
2021/04/27 01:47:34;;;;;;;0.30;0.20;;;;;;;6.72;55.31;99731.28;5015558;28;20526;-51
2021/04/27 01:50:01;;;;;;;0.30;0.20;;;;;;;6.70;54.93;99735.72;5015158;28;21043;-51
2021/04/27 01:52:27;;;;;;;0.30;0.20;;;;;;;6.86;54.26;99732.75;5015307;28;20941;-50
2021/04/27 01:54:53;;;;;;;0.30;0.20;;;;;;;6.76;54.46;99727.66;5015287;28;20526;-50
2021/04/27 01:57:20;;;;;;;0.30;0.20;;;;;;;6.76;54.91;99729.44;5015063;28;20452;-50
2021/04/27 01:59:47;;;;;;;0.30;0.20;;;;;;;6.70;53.87;99726.91;5015291;28;20887;-50
2021/04/27 02:02:13;;;;;;;2.83;2.73;;;;;;;6.58;53.69;99730.72;5015375;28;20448;-50
2021/04/27 02:04:39;;;;;;;0.30;0.20;;;;;;;6.84;53.76;99731.00;5015135;28;20508;-51
2021/04/27 02:07:05;;;;;;;0.30;0.20;;;;;;;6.72;53.66;99725.16;5015123;28;20570;-50
2021/04/27 02:09:32;;;;;;;0.30;0.20;;;;;;;6.88;53.95;99725.66;5014860;28;20474;-50
2021/04/27 02:11:59;;;;;;;0.30;0.20;;;;;;;6.62;54.33;99719.19;5014972;28;20452;-50
2021/04/27 02:14:28;;;;;;;0.30;0.20;;;;;;;6.57;53.81;99723.69;5002056;28;20557;-50
2021/04/27 02:17:23;;;;;;;0.70;0.70;;;;;;;6.62;54.24;99727.09;5014700;28;20461;-50
2021/04/27 02:19:51;;;;;;;0.30;0.20;;;;;;;6.65;53.60;99720.88;5003392;28;20508;-50
2021/04/27 02:22:18;;;;;;;0.30;0.20;;;;;;;6.50;54.56;99724.72;5010015;28;20813;-50
2021/04/27 02:24:44;;;;;;;0.30;0.20;;;;;;;6.42;54.18;99722.22;5015295;28;20449;-50
2021/04/27 02:27:11;;;;;;;0.30;0.20;;;;;;;6.50;54.92;99719.44;5014894;28;20496;-50
2021/04/27 02:29:39;;;;;;;0.63;0.50;;;;;;;6.26;54.98;99719.94;5012846;23;20480;-57
2021/04/27 02:32:06;;;;;;;0.30;0.20;;;;;;;6.16;56.13;99712.19;5015562;28;20464;-61
2021/04/27 02:34:33;;;;;;;0.40;0.40;;;;;;;6.19;55.33;99717.44;5016171;28;20460;-54
2021/04/27 02:36:59;;;;;;;0.30;0.20;;;;;;;6.10;55.71;99716.75;5015571;28;20467;-55
2021/04/27 02:39:25;;;;;;;0.30;0.20;;;;;;;6.09;56.51;99710.59;5015859;28;20464;-54
2021/04/27 02:41:52;;;;;;;0.30;0.20;;;;;;;6.06;56.66;99717.72;5017290;28;20491;-55
2021/04/27 02:44:18;;;;;;;0.30;0.20;;;;;;;6.14;56.76;99715.78;5017050;28;20856;-55
2021/04/27 02:46:45;;;;;;;0.30;0.20;;;;;;;6.26;56.12;99718.19;5016987;28;20488;-54
2021/04/27 02:49:12;;;;;;;0.30;0.20;;;;;;;6.27;55.91;99711.13;5016693;28;20452;-56
2021/04/27 02:51:39;;;;;;;0.30;0.20;;;;;;;6.22;55.39;99711.22;5016569;28;20469;-57
2021/04/27 02:54:06;;;;;;;1.87;0.77;;;;;;;6.35;55.02;99707.44;5016782;28;20449;-64
2021/04/27 02:56:33;;;;;;;0.30;0.20;;;;;;;6.14;56.00;99710.50;5016921;28;20449;-57
2021/04/27 02:59:00;;;;;;;0.30;0.20;;;;;;;6.42;55.25;99711.66;5016883;28;20507;-54
2021/04/27 03:01:27;;;;;;;1.13;1.13;;;;;;;6.32;55.36;99711.91;5015392;28;20469;-59
2021/04/27 03:03:53;;;;;;;0.30;0.20;;;;;;;5.97;56.41;99702.94;5016339;28;20461;-55
2021/04/27 03:06:19;;;;;;;0.30;0.20;;;;;;;6.23;56.10;99703.28;5016176;28;20492;-55
2021/04/27 03:08:46;;;;;;;0.30;0.20;;;;;;;6.00;56.47;99702.00;5015970;28;20464;-55
2021/04/27 03:11:13;;;;;;;0.30;0.10;;;;;;;6.26;55.50;99704.97;5016186;28;20468;-54
2021/04/27 03:13:39;;;;;;;0.30;0.20;;;;;;;6.43;54.90;99708.13;5015735;28;20459;-56
2021/04/27 03:16:06;;;;;;;0.30;0.13;;;;;;;6.46;55.67;99700.16;5014629;28;20502;-56
2021/04/27 03:18:32;;;;;;;0.30;0.20;;;;;;;6.48;55.26;99700.13;5014185;28;20448;-56
2021/04/27 03:20:58;;;;;;;0.30;0.20;;;;;;;6.50;55.24;99696.56;5014061;28;20477;-56
2021/04/27 03:23:25;;;;;;;0.30;0.20;;;;;;;6.48;55.29;99702.78;5014022;28;20503;-57
2021/04/27 03:25:52;;;;;;;0.30;0.20;;;;;;;6.41;55.03;99698.50;5014453;28;20857;-56
2021/04/27 03:28:18;;;;;;;0.30;0.20;;;;;;;6.45;55.11;99701.06;5013947;28;20564;-54
2021/04/27 03:30:45;;;;;;;0.30;0.20;;;;;;;6.61;54.76;99695.47;5013642;28;20515;-54
2021/04/27 03:33:11;;;;;;;0.30;0.20;;;;;;;6.58;54.50;99696.41;5013640;28;20929;-54
2021/04/27 03:35:37;;;;;;;0.30;0.20;;;;;;;6.48;54.99;99703.63;5013746;28;20445;-54
2021/04/27 03:38:03;;;;;;;0.30;0.20;;;;;;;6.44;55.90;99698.44;5012466;28;21079;-54
2021/04/27 03:40:30;;;;;;;0.30;0.20;;;;;;;6.08;57.00;99703.59;5013659;28;20479;-54
2021/04/27 03:42:56;;;;;;;0.30;0.20;;;;;;;6.22;56.60;99704.19;5014522;28;20456;-55
2021/04/27 03:45:34;;;;;;;0.30;0.20;;;;;;;6.13;57.52;99695.56;5014190;28;20542;-54
2021/04/27 03:48:10;;;;;;;0.30;0.20;;;;;;;5.89;58.98;99699.53;5014628;28;20503;-55
2021/04/27 03:50:36;;;;;;;0.30;0.20;;;;;;;5.78;58.80;99689.19;5015220;28;20494;-55
2021/04/27 03:53:04;;;;;;;3.50;1.17;;;;;;;5.54;59.86;99692.28;5015905;28;20823;-55
2021/04/27 03:55:31;;;;;;;0.30;0.20;;;;;;;5.59;59.38;99690.41;5016308;28;20453;-55
2021/04/27 03:57:57;;;;;;;0.30;0.20;;;;;;;5.52;60.32;99694.94;5016396;28;20452;-55
2021/04/27 04:00:23;;;;;;;0.30;0.20;;;;;;;5.50;60.79;99695.88;5015696;28;20989;-54
2021/04/27 04:02:50;;;;;;;0.30;0.20;;;;;;;5.37;60.84;99687.31;5016244;28;20507;-55
2021/04/27 04:05:16;;;;;;;0.30;0.20;;;;;;;5.55;59.53;99681.72;5016722;28;20953;-55
2021/04/27 04:07:42;;;;;;;0.30;0.17;;;;;;;5.86;57.57;99684.63;5015358;28;20456;-56
2021/04/27 04:10:11;;;;;;;0.30;0.20;;;;;;;5.81;57.90;99680.34;5014982;28;20476;-55
2021/04/27 04:12:37;;;;;;;0.30;0.20;;;;;;;6.03;57.00;99683.47;5014882;28;20448;-55
2021/04/27 04:15:05;;;;;;;0.30;0.20;;;;;;;6.08;57.10;99687.75;5013047;28;20460;-55
2021/04/27 04:17:32;;;;;;;0.30;0.20;;;;;;;6.01;57.26;99693.19;5013794;28;20452;-55
2021/04/27 04:19:58;;;;;;;0.30;0.20;;;;;;;6.01;56.47;99693.19;5013380;28;20869;-55
2021/04/27 04:22:31;;;;;;;0.30;0.20;;;;;;;5.98;57.33;99693.25;5013907;28;20965;-55
2021/04/27 04:24:57;;;;;;;0.30;0.20;;;;;;;5.83;57.85;99689.09;5014316;28;20463;-54
2021/04/27 04:27:24;;;;;;;0.30;0.20;;;;;;;5.80;58.01;99690.03;5015796;28;20492;-54
2021/04/27 04:29:50;;;;;;;0.30;0.20;;;;;;;5.77;57.92;99694.50;5014494;28;20468;-54
2021/04/27 04:32:16;;;;;;;0.30;0.20;;;;;;;5.74;58.50;99700.69;5015460;28;20468;-54
2021/04/27 04:34:42;;;;;;;0.30;0.20;;;;;;;5.82;57.64;99695.28;5015528;28;20855;-54
2021/04/27 04:37:08;;;;;;;0.50;0.50;;;;;;;5.74;57.81;99698.03;5016030;28;20495;-54
2021/04/27 04:39:35;;;;;;;0.30;0.20;;;;;;;5.78;58.03;99697.13;5015939;28;20462;-54
2021/04/27 04:42:02;;;;;;;0.30;0.20;;;;;;;5.89;57.68;99702.16;5016212;28;20514;-54
2021/04/27 04:44:28;;;;;;;0.30;0.20;;;;;;;6.25;56.94;99700.59;5015392;28;20456;-54
2021/04/27 04:46:55;;;;;;;0.30;0.20;;;;;;;6.07;57.09;99699.22;5015358;28;20562;-54
2021/04/27 04:49:24;;;;;;;0.30;0.20;;;;;;;6.23;56.74;99705.06;5013951;28;20456;-54
2021/04/27 04:51:53;;;;;;;0.30;0.20;;;;;;;6.13;58.10;99709.63;5013942;28;20448;-55
2021/04/27 04:54:20;;;;;;;0.30;0.20;;;;;;;6.07;58.04;99701.84;5013324;28;20456;-54
2021/04/27 04:56:48;;;;;;;0.30;0.20;;;;;;;6.61;56.23;99704.25;5014878;28;20486;-55
2021/04/27 04:59:14;;;;;;;0.30;0.20;;;;;;;6.72;55.58;99702.25;5013538;28;20464;-55
2021/04/27 05:01:41;;;;;;;0.30;0.20;;;;;;;7.43;54.48;99702.28;5018106;28;20473;-55
2021/04/27 05:04:07;;;;;;;0.30;0.20;;;;;;;8.26;51.62;99702.69;5019127;28;20444;-55
2021/04/27 05:06:37;;;;;;;0.30;0.17;;;;;;;8.33;51.37;99705.13;5017464;28;20496;-54
2021/04/27 05:09:04;;;;;;;0.30;0.20;;;;;;;8.55;50.74;99704.53;5015101;28;20449;-54
2021/04/27 05:11:31;;;;;;;0.30;0.20;;;;;;;8.10;51.48;99696.97;5016156;28;20931;-55
2021/04/27 05:13:58;;;;;;;0.30;0.20;;;;;;;7.99;51.64;99702.56;5016327;28;20461;-55
2021/04/27 05:16:25;;;;;;;0.30;0.20;;;;;;;7.75;52.91;99702.34;5016311;28;20452;-54
2021/04/27 05:18:52;;;;;;;0.30;0.20;;;;;;;7.60;53.24;99701.84;5017634;28;20538;-55
2021/04/27 05:21:19;;;;;;;0.30;0.20;;;;;;;7.61;53.18;99705.38;5018552;28;20472;-55
2021/04/27 05:23:46;;;;;;;0.30;0.20;;;;;;;7.46;52.95;99703.97;5017546;28;20460;-55
2021/04/27 05:26:12;;;;;;;0.30;0.20;;;;;;;7.38;54.36;99708.59;5018400;28;20515;-55
2021/04/27 05:28:39;;;;;;;0.30;0.20;;;;;;;7.62;53.14;99700.03;5017794;28;20457;-55
2021/04/27 05:31:06;;;;;;;0.30;0.20;;;;;;;7.54;53.26;99696.72;5018395;28;20476;-54
2021/04/27 05:33:34;;;;;;;0.30;0.20;;;;;;;7.13;54.60;99703.91;5019078;28;20448;-54
2021/04/27 05:36:01;;;;;;;0.30;0.20;;;;;;;7.46;53.19;99695.19;5018707;28;20506;-54
2021/04/27 05:38:28;;;;;;;0.30;0.20;;;;;;;7.37;53.36;99694.50;5018328;28;20456;-54
2021/04/27 05:40:54;;;;;;;0.30;0.20;;;;;;;7.49;53.46;99695.97;5019294;28;20476;-54
2021/04/27 05:43:20;;;;;;;0.30;0.20;;;;;;;7.59;53.34;99694.81;5018309;28;21240;-55
2021/04/27 05:45:46;;;;;;;0.50;0.50;;;;;;;7.57;52.78;99690.50;5018720;28;20538;-54
2021/04/27 05:48:13;;;;;;;0.77;0.77;;;;;;;7.63;52.49;99690.31;5018670;28;20872;-54
2021/04/27 05:50:40;;;;;;;0.30;0.10;;;;;;;7.76;52.98;99690.88;5018572;28;21000;-54
2021/04/27 05:53:06;;;;;;;0.30;0.20;;;;;;;7.91;51.89;99687.78;5018406;28;20457;-59
2021/04/27 05:55:32;;;;;;;0.30;0.20;;;;;;;8.02;52.39;99683.09;5018957;28;20840;-54
2021/04/27 05:57:58;;;;;;;0.30;0.20;;;;;;;8.25;50.19;99693.03;5017225;28;20452;-55
2021/04/27 06:00:25;;;;;;;0.30;0.20;;;;;;;7.95;50.84;99687.69;5018384;28;20494;-54
2021/04/27 06:02:51;;;;;;;0.30;0.20;;;;;;;8.39;50.34;99685.59;5018264;28;20461;-61
2021/04/27 06:05:18;;;;;;;0.30;0.20;;;;;;;8.15;49.76;99688.91;5018402;28;20858;-55
2021/04/27 06:07:44;;;;;;;0.30;0.20;;;;;;;8.23;49.88;99689.56;5018583;28;20570;-54
2021/04/27 06:10:11;;;;;;;0.30;0.20;;;;;;;8.23;50.18;99687.78;5018371;28;20473;-54
2021/04/27 06:12:37;;;;;;;0.30;0.17;;;;;;;8.24;49.86;99684.22;5015626;28;20465;-54
2021/04/27 06:15:05;;;;;;;0.30;0.23;;;;;;;8.43;49.56;99684.56;5018729;28;20499;-54
2021/04/27 06:17:33;;;;;;;0.30;0.20;;;;;;;8.45;49.48;99684.53;5018133;28;20968;-55
2021/04/27 06:19:59;;;;;;;0.30;0.20;;;;;;;8.41;50.11;99694.34;5018280;28;20484;-54
2021/04/27 06:22:26;;;;;;;0.87;0.70;;;;;;;8.43;49.08;99678.41;5017864;28;20448;-54
2021/04/27 06:24:52;;;;;;;0.30;0.20;;;;;;;8.61;49.46;99681.34;5018021;28;20825;-54
2021/04/27 06:27:24;;;;;;;0.30;0.20;;;;;;;8.45;48.43;99684.53;5017977;28;20503;-54
2021/04/27 06:29:50;;;;;;;0.30;0.20;;;;;;;8.49;48.09;99680.84;5018039;28;20479;-54
2021/04/27 06:32:16;;;;;;;0.30;0.20;;;;;;;8.79;47.56;99687.91;5017878;28;20514;-54
2021/04/27 06:34:43;;;;;;;0.30;0.20;;;;;;;8.82;47.39;99689.56;5018056;28;20484;-54
2021/04/27 06:37:10;;;;;;;0.30;0.20;;;;;;;9.06;47.34;99695.91;5017940;28;20455;-54
2021/04/27 06:39:36;;;;;;;0.30;0.20;;;;;;;8.77;46.27;99681.78;5017368;28;20472;-54
2021/04/27 06:42:03;;;;;;;0.30;0.20;;;;;;;8.96;46.73;99686.50;5017836;28;20993;-55
2021/04/27 06:44:29;;;;;;;0.37;0.30;;;;;;;8.95;45.94;99696.22;5017669;28;20964;-54
2021/04/27 06:46:55;;;;;;;0.30;0.20;;;;;;;8.97;46.86;99685.56;5017166;28;20539;-55
2021/04/27 06:49:22;;;;;;;0.30;0.20;;;;;;;8.86;46.11;99683.25;5017920;28;20945;-54
2021/04/27 06:51:49;;;;;;;0.40;0.40;;;;;;;8.93;46.60;99686.59;5016818;28;21000;-54
2021/04/27 06:54:15;;;;;;;0.30;0.20;;;;;;;9.18;46.77;99693.72;5017749;28;20448;-60
2021/04/27 06:56:41;;;;;;;0.30;0.20;;;;;;;9.13;46.85;99695.63;5017644;28;20499;-55
2021/04/27 06:59:31;;;;;;;0.30;0.20;;;;;;;9.16;46.08;99690.22;5017698;28;20535;-54
2021/04/27 07:02:03;;;;;;;0.30;0.20;;;;;;;9.25;46.33;99689.06;5017784;28;20512;-54
2021/04/27 07:04:29;;;;;;;0.40;0.37;;;;;;;9.32;45.93;99697.66;5017170;28;21049;-60
2021/04/27 07:06:55;;;;;;;0.30;0.20;;;;;;;9.37;46.24;99690.44;5017359;28;20496;-54
2021/04/27 07:09:22;;;;;;;0.30;0.20;;;;;;;9.13;45.84;99694.78;5017465;28;20479;-54
2021/04/27 07:11:48;;;;;;;0.30;0.20;;;;;;;9.20;46.34;99686.56;5017595;28;20480;-54
2021/04/27 07:14:15;;;;;;;0.30;0.20;;;;;;;9.10;46.22;99685.13;5017425;28;20591;-54
2021/04/27 07:16:41;;;;;;;0.30;0.20;;;;;;;9.32;46.25;99684.41;5017418;28;20453;-54
2021/04/27 07:19:08;;;;;;;0.30;0.20;;;;;;;9.05;45.95;99678.25;5016143;28;20488;-54
2021/04/27 07:21:37;;;;;;;0.30;0.20;;;;;;;9.34;46.50;99680.81;5017251;28;20917;-54
2021/04/27 07:24:04;;;;;;;0.30;0.20;;;;;;;9.45;45.19;99681.31;5017519;28;20457;-62
2021/04/27 07:26:30;;;;;;;0.30;0.20;;;;;;;9.39;45.68;99685.97;5016880;28;20498;-55
2021/04/27 07:28:58;;;;;;;0.30;0.20;;;;;;;9.21;45.86;99684.78;5017608;28;20452;-54
2021/04/27 07:31:26;;;;;;;0.30;0.20;;;;;;;9.28;45.37;99674.84;5016526;28;20559;-53
2021/04/27 07:33:52;;;;;;;0.30;0.20;;;;;;;9.19;45.40;99681.31;5017323;28;20460;-54
2021/04/27 07:36:20;;;;;;;0.93;0.93;;;;;;;9.55;45.53;99673.91;5016938;28;20445;-59
2021/04/27 07:38:46;;;;;;;0.30;0.10;;;;;;;9.53;45.08;99674.88;5016655;28;20462;-59
2021/04/27 07:41:12;;;;;;;0.30;0.20;;;;;;;9.82;45.48;99679.16;5016801;28;20464;-55
2021/04/27 07:43:39;;;;;;;0.30;0.20;;;;;;;9.93;45.38;99675.22;5016238;28;20543;-54
2021/04/27 07:46:05;;;;;;;0.30;0.20;;;;;;;10.09;44.95;99667.56;5015635;28;20488;-53
2021/04/27 07:48:32;;;;;;;0.30;0.20;;;;;;;10.05;44.85;99672.13;5015235;28;20448;-54
2021/04/27 07:50:59;;;;;;;0.30;0.20;;;;;;;10.13;44.83;99661.22;5014285;28;20507;-54
2021/04/27 07:53:25;;;;;;;0.30;0.20;;;;;;;10.23;44.92;99659.97;5013656;28;20476;-54
2021/04/27 07:55:51;;;;;;;0.30;0.20;;;;;;;10.06;44.53;99675.66;5013652;28;20452;-54
2021/04/27 07:58:17;;;;;;;0.30;0.20;;;;;;;10.08;44.88;99664.03;5013488;28;20448;-54
2021/04/27 08:00:44;;;;;;;0.33;0.23;;;;;;;10.39;44.62;99665.59;5013725;28;20469;-54
2021/04/27 08:03:10;;;;;;;0.30;0.20;;;;;;;10.22;44.07;99665.34;5015246;28;20448;-54
2021/04/27 08:05:37;;;;;;;0.40;0.30;;;;;;;10.31;44.25;99680.97;5014574;28;20463;-54
2021/04/27 08:08:03;;;;;;;0.30;0.20;;;;;;;10.26;44.99;99667.84;5015148;28;20445;-54
2021/04/27 08:10:30;;;;;;;0.30;0.20;;;;;;;10.55;44.67;99664.09;5013734;28;20503;-54
2021/04/27 08:12:56;;;;;;;2.40;1.03;;;;;;;10.84;44.61;99673.59;5013204;28;20452;-54
2021/04/27 08:15:25;;;;;;;0.40;0.33;;;;;;;10.50;44.20;99668.69;5013430;28;20455;-55
2021/04/27 08:17:53;;;;;;;0.30;0.20;;;;;;;10.86;43.94;99674.38;5012784;28;20492;-55
2021/04/27 08:20:21;;;;;;;0.30;0.20;;;;;;;10.93;43.58;99665.22;5013040;28;20469;-55
2021/04/27 08:22:48;;;;;;;0.30;0.20;;;;;;;11.15;43.31;99665.22;5013318;28;20942;-54
2021/04/27 08:25:17;;;;;;;0.30;0.20;;;;;;;10.94;42.81;99656.31;5012948;28;20449;-55
2021/04/27 08:27:45;;;;;;;1.43;1.23;;;;;;;11.46;42.96;99655.97;5012992;28;20913;-55
2021/04/27 08:30:13;;;;;;;0.30;0.20;;;;;;;11.37;42.02;99659.00;5012940;28;20504;-58
2021/04/27 08:32:39;;;;;;;0.30;0.20;;;;;;;11.33;42.75;99660.06;5012747;28;20437;-59
2021/04/27 08:35:07;;;;;;;0.30;0.20;;;;;;;11.20;42.51;99657.06;5012066;28;20453;-58
2021/04/27 08:37:33;;;;;;;0.30;0.20;;;;;;;11.48;42.06;99652.31;5012986;28;20539;-59
2021/04/27 08:40:00;;;;;;;0.30;0.20;;;;;;;11.83;41.98;99650.81;5012482;28;20474;-58
2021/04/27 08:42:26;;;;;;;0.30;0.20;;;;;;;11.46;42.37;99650.66;5012673;28;20455;-58
2021/04/27 08:44:53;;;;;;;0.30;0.20;;;;;;;11.43;41.90;99643.66;5012591;28;20484;-58
2021/04/27 08:47:22;;;;;;;0.30;0.20;;;;;;;11.74;42.53;99637.88;5012356;28;21072;-58
2021/04/27 08:49:49;;;;;;;0.30;0.20;;;;;;;11.90;42.34;99635.44;5012203;28;20473;-58
2021/04/27 08:52:15;;;;;;;0.40;0.20;;;;;;;12.07;41.57;99640.03;5012462;28;20552;-58
2021/04/27 08:54:41;;;;;;;0.30;0.20;;;;;;;12.13;40.95;99642.41;5012497;28;20449;-59
2021/04/27 08:57:08;;;;;;;0.30;0.20;;;;;;;11.65;41.41;99640.97;5012377;28;20448;-59
2021/04/27 08:59:34;;;;;;;0.30;0.20;;;;;;;12.02;41.55;99632.22;5012290;28;20484;-58
2021/04/27 09:02:00;;;;;;;0.30;0.20;;;;;;;12.20;41.89;99629.63;5012279;28;20452;-58
2021/04/27 09:04:46;;;;;;;0.30;0.20;;;;;;;12.29;41.86;99638.09;5012179;28;20468;-58
2021/04/27 09:07:17;;;;;;;0.30;0.20;;;;;;;12.66;40.70;99623.91;5012399;28;20492;-58
2021/04/27 09:09:44;;;;;;;0.40;0.30;;;;;;;12.11;40.89;99620.28;5012170;28;20452;-58
2021/04/27 09:12:12;;;;;;;1.07;1.07;;;;;;;12.32;41.36;99624.63;5012304;28;20464;-58
2021/04/27 09:14:41;;;;;;;0.30;0.20;;;;;;;12.22;40.99;99615.34;5012177;28;20460;-58
2021/04/27 09:17:10;;;;;;;0.30;0.20;;;;;;;12.41;40.40;99620.66;5011996;28;20452;-59
2021/04/27 09:19:54;;;;;;;0.30;0.20;;;;;;;12.74;40.41;99615.53;5012202;28;20449;-58
2021/04/27 09:22:25;;;;;;;0.50;0.50;;;;;;;12.60;40.14;99613.53;5012135;28;20448;-58
2021/04/27 09:24:53;;;;;;;0.60;0.60;;;;;;;12.44;40.37;99613.38;5012200;28;20452;-58
2021/04/27 09:27:29;;;;;;;0.30;0.20;;;;;;;12.57;40.29;99599.47;5011758;28;20488;-59
2021/04/27 09:29:58;;;;;;;0.30;0.20;;;;;;;12.89;40.48;99598.81;5012209;28;20472;-58
2021/04/27 09:32:38;;;;;;;0.40;0.30;;;;;;;13.01;39.81;99591.97;5011680;28;20457;-58
2021/04/27 09:35:25;;;;;;;0.30;0.20;;;;;;;13.05;39.77;99612.25;5010769;28;20475;-58
2021/04/27 09:38:15;;;;;;;0.30;0.20;;;;;;;12.91;40.26;99601.38;5011898;28;20456;-58
2021/04/27 09:41:02;;;;;;;0.30;0.20;;;;;;;13.13;40.51;99596.69;4999696;28;20902;-58
2021/04/27 09:43:31;;;;;;;0.30;0.20;;;;;;;12.57;40.87;99587.00;5009041;28;20460;-58
2021/04/27 09:46:00;;;;;;;0.30;0.20;;;;;;;13.16;40.10;99590.38;5011649;28;20536;-59
2021/04/27 09:48:29;;;;;;;0.30;0.20;;;;;;;13.53;39.88;99589.34;5014557;28;20460;-58
2021/04/27 09:51:23;;;;;;;0.30;0.20;;;;;;;13.92;39.62;99581.91;5015407;28;20475;-59
2021/04/27 09:54:11;;;;;;;0.30;0.20;;;;;;;13.25;40.07;99592.59;5006120;28;20456;-58
2021/04/27 09:56:51;;;;;;;0.30;0.20;;;;;;;13.21;40.31;99578.53;5015263;28;20444;-58
2021/04/27 09:59:24;;;;;;;0.30;0.20;;;;;;;12.99;40.21;99568.03;5015524;28;20445;-58
2021/04/27 10:01:54;;;;;;;0.40;0.30;;;;;;;13.80;40.06;99566.53;5002945;28;20452;-58
2021/04/27 10:04:23;;;;;;;0.30;0.20;;;;;;;13.78;38.88;99563.09;5015459;28;20452;-59
2021/04/27 10:06:50;;;;;;;0.30;0.20;;;;;;;13.54;39.63;99559.03;5014924;28;20492;-58
2021/04/27 10:09:17;;;;;;;0.40;0.40;;;;;;;13.63;39.14;99563.91;5013723;28;20453;-58
2021/04/27 10:11:44;;;;;;;0.30;0.20;;;;;;;13.72;39.53;99558.09;5015126;28;20949;-58
2021/04/27 10:14:11;;;;;;;0.30;0.20;;;;;;;13.50;40.10;99547.66;5015070;28;20449;-58
2021/04/27 10:16:39;;;;;;;0.30;0.20;;;;;;;13.60;40.00;99548.06;5014978;28;20456;-59
2021/04/27 10:19:11;;;;;;;0.30;0.20;;;;;;;13.57;39.47;99553.56;5014747;28;20452;-58
2021/04/27 10:21:37;;;;;;;0.30;0.20;;;;;;;13.76;39.41;99545.44;5014574;28;20559;-58
2021/04/27 10:24:13;;;;;;;0.40;0.30;;;;;;;14.18;40.38;99547.56;5014878;28;20471;-58
2021/04/27 10:26:44;;;;;;;0.30;0.20;;;;;;;13.79;38.67;99538.09;5014843;28;20479;-58
2021/04/27 10:29:24;;;;;;;0.30;0.20;;;;;;;13.88;38.86;99537.63;5014762;28;20476;-59
2021/04/27 10:32:14;;;;;;;0.80;0.80;;;;;;;14.19;39.74;99541.28;5014475;28;20460;-59
2021/04/27 10:34:56;;;;;;;0.30;0.20;;;;;;;14.16;39.75;99536.09;5014697;28;20531;-58
2021/04/27 10:37:24;;;;;;;1.23;0.73;;;;;;;14.48;38.80;99520.94;5001620;28;20803;-58
2021/04/27 10:39:51;;;;;;;0.50;0.50;;;;;;;14.44;38.75;99524.75;5014178;28;20484;-58
2021/04/27 10:42:22;;;;;;;0.30;0.20;;;;;;;14.48;38.55;99512.94;5014251;28;20961;-59
2021/04/27 10:44:59;;;;;;;0.30;0.20;;;;;;;14.37;38.61;99518.84;5014610;28;20500;-59
2021/04/27 10:47:27;;;;;;;0.30;0.20;;;;;;;14.86;37.84;99502.69;5014193;28;20855;-58
2021/04/27 10:49:56;;;;;;;0.47;0.47;;;;;;;14.73;38.19;99520.41;5014107;28;20551;-58
2021/04/27 10:52:34;;;;;;;0.30;0.20;;;;;;;14.77;37.69;99511.25;5014183;28;20874;-58
2021/04/27 10:55:26;;;;;;;1.00;0.87;;;;;;;15.16;37.58;99502.69;5014120;28;20529;-58
2021/04/27 10:57:58;;;;;;;0.30;0.20;;;;;;;15.19;37.20;99494.44;5013510;28;20950;-59
2021/04/27 11:00:35;;;;;;;0.30;0.20;;;;;;;15.10;37.33;99492.34;5014059;28;20483;-58
2021/04/27 11:03:13;;;;;;;0.40;0.30;;;;;;;15.59;37.80;99494.69;5013852;28;20472;-59
2021/04/27 11:05:53;;;;;;;0.30;0.20;;;;;;;14.93;36.94;99500.50;5014022;28;20448;-58
2021/04/27 11:08:19;;;;;;;0.30;0.30;;;;;;;15.04;36.92;99493.56;5014042;28;20456;-58
2021/04/27 11:10:47;;;;;;;0.30;0.20;;;;;;;15.09;36.60;99485.28;5013660;28;21051;-59
2021/04/27 11:13:14;;;;;;;0.40;0.30;;;;;;;15.55;36.64;99490.50;5013690;28;20460;-58
2021/04/27 11:15:43;;;;;;;0.30;0.30;;;;;;;15.34;37.25;99484.63;5013733;28;20508;-58
2021/04/27 11:18:19;;;;;;;0.30;0.20;;;;;;;15.30;36.53;99475.94;5013761;28;20945;-58
2021/04/27 11:20:49;;;;;;;0.30;0.20;;;;;;;15.33;37.02;99483.75;5013706;28;20472;-58
2021/04/27 11:23:33;;;;;;;0.30;0.30;;;;;;;14.85;36.41;99489.41;5013672;28;20960;-58
2021/04/27 11:26:01;;;;;;;0.30;0.20;;;;;;;15.47;35.95;99469.53;5013300;28;20934;-58
2021/04/27 11:28:57;;;;;;;0.30;0.20;;;;;;;15.46;35.58;99474.97;5013726;28;20457;-58
2021/04/27 11:31:23;;;;;;;0.40;0.30;;;;;;;15.73;36.21;99467.06;5003844;28;20480;-58
2021/04/27 11:34:04;;;;;;;0.63;0.63;;;;;;;15.58;35.75;99461.69;5013427;28;20483;-58
2021/04/27 11:36:38;;;;;;;0.30;0.20;;;;;;;16.17;36.14;99464.22;5013330;28;20857;-59
2021/04/27 11:39:18;;;;;;;0.30;0.20;;;;;;;16.22;36.08;99467.50;5002912;28;20448;-59
2021/04/27 11:41:46;;;;;;;0.33;0.23;;;;;;;15.71;36.03;99456.47;5012974;28;20896;-59
2021/04/27 11:44:12;;;;;;;0.30;0.20;;;;;;;15.99;35.13;99450.19;5013209;28;20523;-58
2021/04/27 11:46:57;;;;;;;2.80;1.17;;;;;;;15.69;35.51;99445.00;5012931;28;20492;-58